sensor_id;sensor_type;location;lat;lon;timestamp;P1;durP1;ratioP1;P2;durP2;ratioP2
31336;SDS011;22846;42.654;23.314;2023-09-12T00:00:05;7.32;;;3.40;;
31336;SDS011;22846;42.654;23.314;2023-09-12T00:02:32;4.32;;;2.75;;
31336;SDS011;22846;42.654;23.314;2023-09-12T00:04:58;11.27;;;3.42;;
31336;SDS011;22846;42.654;23.314;2023-09-12T00:07:23;22.17;;;4.60;;
31336;SDS011;22846;42.654;23.314;2023-09-12T00:09:48;6.25;;;3.50;;
31336;SDS011;22846;42.654;23.314;2023-09-12T00:12:14;6.85;;;3.10;;
31336;SDS011;22846;42.654;23.314;2023-09-12T00:14:40;8.57;;;3.40;;
31336;SDS011;22846;42.654;23.314;2023-09-12T00:17:06;6.25;;;3.20;;
31336;SDS011;22846;42.654;23.314;2023-09-12T00:19:31;8.77;;;3.63;;
31336;SDS011;22846;42.654;23.314;2023-09-12T00:21:57;8.38;;;3.90;;
31336;SDS011;22846;42.654;23.314;2023-09-12T00:24:22;8.13;;;3.17;;
31336;SDS011;22846;42.654;23.314;2023-09-12T00:26:47;4.95;;;3.50;;
31336;SDS011;22846;42.654;23.314;2023-09-12T00:29:13;5.97;;;3.38;;
31336;SDS011;22846;42.654;23.314;2023-09-12T00:31:38;5.32;;;3.50;;
31336;SDS011;22846;42.654;23.314;2023-09-12T00:34:04;5.63;;;3.10;;
31336;SDS011;22846;42.654;23.314;2023-09-12T00:36:29;8.57;;;3.38;;
31336;SDS011;22846;42.654;23.314;2023-09-12T00:38:54;7.18;;;3.30;;
31336;SDS011;22846;42.654;23.314;2023-09-12T00:41:20;8.18;;;3.67;;
31336;SDS011;22846;42.654;23.314;2023-09-12T00:43:45;7.97;;;3.40;;
31336;SDS011;22846;42.654;23.314;2023-09-12T00:46:10;7.57;;;3.33;;
31336;SDS011;22846;42.654;23.314;2023-09-12T00:48:39;6.05;;;2.92;;
31336;SDS011;22846;42.654;23.314;2023-09-12T00:51:04;7.70;;;3.30;;
31336;SDS011;22846;42.654;23.314;2023-09-12T00:53:30;7.45;;;3.25;;
31336;SDS011;22846;42.654;23.314;2023-09-12T00:55:57;6.50;;;3.30;;
31336;SDS011;22846;42.654;23.314;2023-09-12T00:58:24;7.13;;;3.42;;
31336;SDS011;22846;42.654;23.314;2023-09-12T01:00:51;6.78;;;3.10;;
31336;SDS011;22846;42.654;23.314;2023-09-12T01:03:16;5.78;;;3.10;;
31336;SDS011;22846;42.654;23.314;2023-09-12T01:05:42;5.63;;;3.50;;
31336;SDS011;22846;42.654;23.314;2023-09-12T01:08:08;9.55;;;3.60;;
31336;SDS011;22846;42.654;23.314;2023-09-12T01:10:34;7.15;;;3.45;;
31336;SDS011;22846;42.654;23.314;2023-09-12T01:12:59;7.43;;;3.50;;
31336;SDS011;22846;42.654;23.314;2023-09-12T01:15:25;10.45;;;3.60;;
31336;SDS011;22846;42.654;23.314;2023-09-12T01:17:50;6.05;;;3.47;;
31336;SDS011;22846;42.654;23.314;2023-09-12T01:20:16;7.22;;;3.60;;
31336;SDS011;22846;42.654;23.314;2023-09-12T01:23:05;5.43;;;3.08;;
31336;SDS011;22846;42.654;23.314;2023-09-12T01:28:27;6.40;;;3.00;;
31336;SDS011;22846;42.654;23.314;2023-09-12T01:30:59;6.57;;;3.35;;
31336;SDS011;22846;42.654;23.314;2023-09-12T01:33:25;7.15;;;3.55;;
31336;SDS011;22846;42.654;23.314;2023-09-12T01:35:51;7.13;;;3.47;;
31336;SDS011;22846;42.654;23.314;2023-09-12T01:38:17;8.07;;;3.22;;
31336;SDS011;22846;42.654;23.314;2023-09-12T01:40:43;6.35;;;3.25;;
31336;SDS011;22846;42.654;23.314;2023-09-12T01:43:12;5.82;;;3.17;;
31336;SDS011;22846;42.654;23.314;2023-09-12T01:45:41;6.43;;;3.35;;
31336;SDS011;22846;42.654;23.314;2023-09-12T01:48:08;5.43;;;3.13;;
31336;SDS011;22846;42.654;23.314;2023-09-12T01:50:36;6.13;;;3.13;;
31336;SDS011;22846;42.654;23.314;2023-09-12T01:53:02;7.43;;;3.45;;
31336;SDS011;22846;42.654;23.314;2023-09-12T01:55:28;6.65;;;3.00;;
31336;SDS011;22846;42.654;23.314;2023-09-12T01:57:54;6.50;;;3.15;;
31336;SDS011;22846;42.654;23.314;2023-09-12T02:00:22;7.07;;;3.22;;
31336;SDS011;22846;42.654;23.314;2023-09-12T02:02:48;5.22;;;2.95;;
31336;SDS011;22846;42.654;23.314;2023-09-12T02:05:14;5.65;;;3.33;;
31336;SDS011;22846;42.654;23.314;2023-09-12T02:07:45;7.85;;;3.33;;
31336;SDS011;22846;42.654;23.314;2023-09-12T02:10:11;5.00;;;3.10;;
31336;SDS011;22846;42.654;23.314;2023-09-12T02:12:37;10.23;;;3.17;;
31336;SDS011;22846;42.654;23.314;2023-09-12T02:15:02;5.78;;;3.08;;
31336;SDS011;22846;42.654;23.314;2023-09-12T02:17:28;4.90;;;2.97;;
31336;SDS011;22846;42.654;23.314;2023-09-12T02:19:54;4.88;;;2.97;;
31336;SDS011;22846;42.654;23.314;2023-09-12T02:22:20;5.55;;;3.10;;
31336;SDS011;22846;42.654;23.314;2023-09-12T02:24:46;6.40;;;3.35;;
31336;SDS011;22846;42.654;23.314;2023-09-12T02:27:11;6.95;;;3.35;;
31336;SDS011;22846;42.654;23.314;2023-09-12T02:29:38;5.60;;;3.30;;
31336;SDS011;22846;42.654;23.314;2023-09-12T02:32:04;5.93;;;3.28;;
31336;SDS011;22846;42.654;23.314;2023-09-12T02:34:29;5.60;;;3.08;;
31336;SDS011;22846;42.654;23.314;2023-09-12T02:36:55;8.73;;;2.97;;
31336;SDS011;22846;42.654;23.314;2023-09-12T02:39:20;7.63;;;3.10;;
31336;SDS011;22846;42.654;23.314;2023-09-12T02:41:45;7.22;;;3.05;;
31336;SDS011;22846;42.654;23.314;2023-09-12T02:44:11;5.55;;;3.10;;
31336;SDS011;22846;42.654;23.314;2023-09-12T02:46:36;5.78;;;3.20;;
31336;SDS011;22846;42.654;23.314;2023-09-12T02:49:02;5.60;;;3.42;;
31336;SDS011;22846;42.654;23.314;2023-09-12T02:51:28;6.25;;;3.35;;
31336;SDS011;22846;42.654;23.314;2023-09-12T02:53:53;4.47;;;3.10;;
31336;SDS011;22846;42.654;23.314;2023-09-12T02:56:19;5.20;;;2.80;;
31336;SDS011;22846;42.654;23.314;2023-09-12T02:58:47;6.30;;;3.33;;
31336;SDS011;22846;42.654;23.314;2023-09-12T03:01:17;9.20;;;3.30;;
31336;SDS011;22846;42.654;23.314;2023-09-12T03:03:43;5.15;;;2.80;;
31336;SDS011;22846;42.654;23.314;2023-09-12T03:06:11;4.55;;;2.85;;
31336;SDS011;22846;42.654;23.314;2023-09-12T03:08:37;6.03;;;3.40;;
31336;SDS011;22846;42.654;23.314;2023-09-12T03:11:04;7.38;;;3.38;;
31336;SDS011;22846;42.654;23.314;2023-09-12T03:13:29;4.10;;;3.03;;
31336;SDS011;22846;42.654;23.314;2023-09-12T03:15:55;5.97;;;2.72;;
31336;SDS011;22846;42.654;23.314;2023-09-12T03:18:20;5.00;;;3.15;;
31336;SDS011;22846;42.654;23.314;2023-09-12T03:20:46;5.97;;;3.47;;
31336;SDS011;22846;42.654;23.314;2023-09-12T03:23:11;6.07;;;3.20;;
31336;SDS011;22846;42.654;23.314;2023-09-12T03:25:37;6.15;;;3.20;;
31336;SDS011;22846;42.654;23.314;2023-09-12T03:28:04;8.63;;;3.10;;
31336;SDS011;22846;42.654;23.314;2023-09-12T03:30:30;6.38;;;2.95;;
31336;SDS011;22846;42.654;23.314;2023-09-12T03:32:56;4.60;;;3.28;;
31336;SDS011;22846;42.654;23.314;2023-09-12T03:35:21;6.95;;;3.55;;
31336;SDS011;22846;42.654;23.314;2023-09-12T03:37:46;7.15;;;3.60;;
31336;SDS011;22846;42.654;23.314;2023-09-12T03:40:12;6.55;;;2.80;;
31336;SDS011;22846;42.654;23.314;2023-09-12T03:42:37;7.10;;;3.40;;
31336;SDS011;22846;42.654;23.314;2023-09-12T03:45:02;7.88;;;2.90;;
31336;SDS011;22846;42.654;23.314;2023-09-12T03:47:28;12.00;;;3.40;;
31336;SDS011;22846;42.654;23.314;2023-09-12T03:49:54;8.07;;;3.25;;
31336;SDS011;22846;42.654;23.314;2023-09-12T03:52:19;12.43;;;3.30;;
31336;SDS011;22846;42.654;23.314;2023-09-12T03:54:44;7.47;;;3.28;;
31336;SDS011;22846;42.654;23.314;2023-09-12T03:57:10;8.60;;;3.25;;
31336;SDS011;22846;42.654;23.314;2023-09-12T03:59:35;10.52;;;3.45;;
31336;SDS011;22846;42.654;23.314;2023-09-12T04:02:01;6.60;;;2.97;;
31336;SDS011;22846;42.654;23.314;2023-09-12T04:04:30;10.18;;;3.92;;
31336;SDS011;22846;42.654;23.314;2023-09-12T04:06:56;14.25;;;4.93;;
31336;SDS011;22846;42.654;23.314;2023-09-12T04:09:21;9.98;;;4.70;;
31336;SDS011;22846;42.654;23.314;2023-09-12T04:11:46;9.98;;;4.55;;
31336;SDS011;22846;42.654;23.314;2023-09-12T04:14:13;12.18;;;4.22;;
31336;SDS011;22846;42.654;23.314;2023-09-12T04:16:39;11.98;;;4.78;;
31336;SDS011;22846;42.654;23.314;2023-09-12T04:19:04;12.80;;;4.60;;
31336;SDS011;22846;42.654;23.314;2023-09-12T04:21:30;11.02;;;4.35;;
31336;SDS011;22846;42.654;23.314;2023-09-12T04:23:55;13.73;;;4.93;;
31336;SDS011;22846;42.654;23.314;2023-09-12T04:26:20;11.02;;;5.03;;
31336;SDS011;22846;42.654;23.314;2023-09-12T04:28:46;14.32;;;4.50;;
31336;SDS011;22846;42.654;23.314;2023-09-12T04:31:12;7.35;;;4.55;;
31336;SDS011;22846;42.654;23.314;2023-09-12T04:33:37;9.68;;;4.28;;
31336;SDS011;22846;42.654;23.314;2023-09-12T04:36:03;11.35;;;4.57;;
31336;SDS011;22846;42.654;23.314;2023-09-12T04:38:29;11.73;;;4.68;;
31336;SDS011;22846;42.654;23.314;2023-09-12T04:40:59;8.98;;;4.43;;
31336;SDS011;22846;42.654;23.314;2023-09-12T04:43:31;8.98;;;4.05;;
31336;SDS011;22846;42.654;23.314;2023-09-12T04:45:56;7.70;;;4.20;;
31336;SDS011;22846;42.654;23.314;2023-09-12T04:48:22;13.43;;;4.47;;
31336;SDS011;22846;42.654;23.314;2023-09-12T04:50:48;8.85;;;4.57;;
31336;SDS011;22846;42.654;23.314;2023-09-12T04:53:14;14.80;;;4.80;;
31336;SDS011;22846;42.654;23.314;2023-09-12T04:55:39;12.70;;;4.80;;
31336;SDS011;22846;42.654;23.314;2023-09-12T04:58:05;17.83;;;5.28;;
31336;SDS011;22846;42.654;23.314;2023-09-12T05:00:30;13.23;;;4.80;;
31336;SDS011;22846;42.654;23.314;2023-09-12T05:02:56;9.55;;;4.53;;
31336;SDS011;22846;42.654;23.314;2023-09-12T05:05:21;17.52;;;5.15;;
31336;SDS011;22846;42.654;23.314;2023-09-12T05:07:47;14.00;;;4.82;;
31336;SDS011;22846;42.654;23.314;2023-09-12T05:10:12;8.48;;;4.03;;
31336;SDS011;22846;42.654;23.314;2023-09-12T05:12:38;12.73;;;4.95;;
31336;SDS011;22846;42.654;23.314;2023-09-12T05:15:03;19.00;;;5.20;;
31336;SDS011;22846;42.654;23.314;2023-09-12T05:17:29;12.32;;;5.13;;
31336;SDS011;22846;42.654;23.314;2023-09-12T05:19:55;7.35;;;4.35;;
31336;SDS011;22846;42.654;23.314;2023-09-12T05:22:20;12.40;;;4.78;;
31336;SDS011;22846;42.654;23.314;2023-09-12T05:24:46;9.65;;;4.80;;
31336;SDS011;22846;42.654;23.314;2023-09-12T05:27:11;17.30;;;4.25;;
31336;SDS011;22846;42.654;23.314;2023-09-12T05:29:37;17.65;;;4.90;;
31336;SDS011;22846;42.654;23.314;2023-09-12T05:32:02;11.98;;;4.72;;
31336;SDS011;22846;42.654;23.314;2023-09-12T05:34:29;13.82;;;4.63;;
31336;SDS011;22846;42.654;23.314;2023-09-12T05:36:54;13.35;;;4.00;;
31336;SDS011;22846;42.654;23.314;2023-09-12T05:39:19;10.25;;;4.70;;
31336;SDS011;22846;42.654;23.314;2023-09-12T05:41:45;61.00;;;14.32;;
31336;SDS011;22846;42.654;23.314;2023-09-12T05:44:10;51.67;;;29.90;;
31336;SDS011;22846;42.654;23.314;2023-09-12T05:46:42;50.70;;;34.60;;
31336;SDS011;22846;42.654;23.314;2023-09-12T05:49:08;40.15;;;25.10;;
31336;SDS011;22846;42.654;23.314;2023-09-12T05:51:34;29.02;;;18.08;;
31336;SDS011;22846;42.654;23.314;2023-09-12T05:53:59;29.50;;;15.50;;
31336;SDS011;22846;42.654;23.314;2023-09-12T05:56:26;26.98;;;13.93;;
31336;SDS011;22846;42.654;23.314;2023-09-12T05:58:52;23.13;;;13.05;;
31336;SDS011;22846;42.654;23.314;2023-09-12T06:01:17;19.95;;;12.60;;
31336;SDS011;22846;42.654;23.314;2023-09-12T06:03:42;24.75;;;12.20;;
31336;SDS011;22846;42.654;23.314;2023-09-12T06:06:08;17.38;;;11.95;;
31336;SDS011;22846;42.654;23.314;2023-09-12T06:08:33;19.50;;;12.82;;
31336;SDS011;22846;42.654;23.314;2023-09-12T06:10:59;19.35;;;11.68;;
31336;SDS011;22846;42.654;23.314;2023-09-12T06:13:24;19.10;;;11.63;;
31336;SDS011;22846;42.654;23.314;2023-09-12T06:15:50;18.13;;;11.80;;
31336;SDS011;22846;42.654;23.314;2023-09-12T06:18:15;19.42;;;11.25;;
31336;SDS011;22846;42.654;23.314;2023-09-12T06:20:40;13.20;;;10.38;;
31336;SDS011;22846;42.654;23.314;2023-09-12T06:23:07;16.80;;;10.77;;
31336;SDS011;22846;42.654;23.314;2023-09-12T06:25:32;18.35;;;10.52;;
31336;SDS011;22846;42.654;23.314;2023-09-12T06:27:59;17.85;;;10.60;;
31336;SDS011;22846;42.654;23.314;2023-09-12T06:30:24;16.00;;;9.52;;
31336;SDS011;22846;42.654;23.314;2023-09-12T06:32:49;15.95;;;9.73;;
31336;SDS011;22846;42.654;23.314;2023-09-12T06:35:15;16.55;;;10.05;;
31336;SDS011;22846;42.654;23.314;2023-09-12T06:37:40;14.50;;;9.25;;
31336;SDS011;22846;42.654;23.314;2023-09-12T06:40:06;13.45;;;9.23;;
31336;SDS011;22846;42.654;23.314;2023-09-12T06:42:32;15.27;;;9.00;;
31336;SDS011;22846;42.654;23.314;2023-09-12T06:44:58;13.75;;;8.63;;
31336;SDS011;22846;42.654;23.314;2023-09-12T06:47:23;12.50;;;8.45;;
31336;SDS011;22846;42.654;23.314;2023-09-12T06:49:49;15.15;;;8.25;;
31336;SDS011;22846;42.654;23.314;2023-09-12T06:52:14;14.45;;;8.23;;
31336;SDS011;22846;42.654;23.314;2023-09-12T06:54:39;18.17;;;7.88;;
31336;SDS011;22846;42.654;23.314;2023-09-12T06:57:05;11.65;;;7.85;;
31336;SDS011;22846;42.654;23.314;2023-09-12T06:59:30;14.68;;;8.15;;
31336;SDS011;22846;42.654;23.314;2023-09-12T07:01:56;13.32;;;8.13;;
31336;SDS011;22846;42.654;23.314;2023-09-12T07:04:21;12.55;;;7.00;;
31336;SDS011;22846;42.654;23.314;2023-09-12T07:06:47;13.88;;;7.47;;
31336;SDS011;22846;42.654;23.314;2023-09-12T07:09:12;9.95;;;7.10;;
31336;SDS011;22846;42.654;23.314;2023-09-12T07:11:39;11.95;;;7.45;;
31336;SDS011;22846;42.654;23.314;2023-09-12T07:14:06;10.45;;;6.70;;
31336;SDS011;22846;42.654;23.314;2023-09-12T07:16:32;19.83;;;7.95;;
31336;SDS011;22846;42.654;23.314;2023-09-12T07:18:57;10.70;;;7.65;;
31336;SDS011;22846;42.654;23.314;2023-09-12T07:21:23;10.55;;;6.65;;
31336;SDS011;22846;42.654;23.314;2023-09-12T07:23:48;11.43;;;6.55;;
31336;SDS011;22846;42.654;23.314;2023-09-12T07:26:14;11.23;;;6.55;;
31336;SDS011;22846;42.654;23.314;2023-09-12T07:28:39;9.95;;;6.70;;
31336;SDS011;22846;42.654;23.314;2023-09-12T07:31:05;11.20;;;7.38;;
31336;SDS011;22846;42.654;23.314;2023-09-12T07:33:30;12.80;;;7.13;;
31336;SDS011;22846;42.654;23.314;2023-09-12T07:35:55;13.15;;;7.10;;
31336;SDS011;22846;42.654;23.314;2023-09-12T07:38:21;10.70;;;6.10;;
31336;SDS011;22846;42.654;23.314;2023-09-12T07:40:47;10.18;;;6.30;;
31336;SDS011;22846;42.654;23.314;2023-09-12T07:43:12;8.20;;;6.05;;
31336;SDS011;22846;42.654;23.314;2023-09-12T07:45:38;10.88;;;6.28;;
31336;SDS011;22846;42.654;23.314;2023-09-12T07:48:05;8.32;;;5.80;;
31336;SDS011;22846;42.654;23.314;2023-09-12T07:50:36;10.60;;;6.35;;
31336;SDS011;22846;42.654;23.314;2023-09-12T07:53:04;11.07;;;6.03;;
31336;SDS011;22846;42.654;23.314;2023-09-12T07:55:36;10.25;;;6.25;;
31336;SDS011;22846;42.654;23.314;2023-09-12T07:58:10;9.65;;;6.18;;
31336;SDS011;22846;42.654;23.314;2023-09-12T08:00:36;10.45;;;5.80;;
31336;SDS011;22846;42.654;23.314;2023-09-12T08:03:01;9.82;;;6.03;;
31336;SDS011;22846;42.654;23.314;2023-09-12T08:05:27;11.15;;;5.63;;
31336;SDS011;22846;42.654;23.314;2023-09-12T08:07:52;10.75;;;5.82;;
31336;SDS011;22846;42.654;23.314;2023-09-12T08:10:18;10.32;;;5.38;;
31336;SDS011;22846;42.654;23.314;2023-09-12T08:12:43;9.40;;;5.30;;
31336;SDS011;22846;42.654;23.314;2023-09-12T08:15:09;9.10;;;5.57;;
31336;SDS011;22846;42.654;23.314;2023-09-12T08:17:35;7.53;;;5.15;;
31336;SDS011;22846;42.654;23.314;2023-09-12T08:20:00;7.10;;;4.90;;
31336;SDS011;22846;42.654;23.314;2023-09-12T08:22:26;7.05;;;5.32;;
31336;SDS011;22846;42.654;23.314;2023-09-12T08:24:51;7.82;;;4.97;;
31336;SDS011;22846;42.654;23.314;2023-09-12T08:27:16;9.75;;;5.05;;
31336;SDS011;22846;42.654;23.314;2023-09-12T08:29:42;8.40;;;4.80;;
31336;SDS011;22846;42.654;23.314;2023-09-12T08:32:09;8.85;;;4.95;;
31336;SDS011;22846;42.654;23.314;2023-09-12T08:34:35;9.45;;;5.10;;
31336;SDS011;22846;42.654;23.314;2023-09-12T08:37:00;7.18;;;4.47;;
31336;SDS011;22846;42.654;23.314;2023-09-12T08:39:26;6.10;;;4.45;;
31336;SDS011;22846;42.654;23.314;2023-09-12T08:41:52;7.72;;;5.03;;
31336;SDS011;22846;42.654;23.314;2023-09-12T08:44:19;7.63;;;4.80;;
31336;SDS011;22846;42.654;23.314;2023-09-12T08:46:45;8.73;;;5.22;;
31336;SDS011;22846;42.654;23.314;2023-09-12T08:49:11;9.40;;;4.60;;
31336;SDS011;22846;42.654;23.314;2023-09-12T08:51:37;8.40;;;4.70;;
31336;SDS011;22846;42.654;23.314;2023-09-12T08:54:04;7.55;;;4.60;;
31336;SDS011;22846;42.654;23.314;2023-09-12T08:56:30;8.18;;;4.68;;
31336;SDS011;22846;42.654;23.314;2023-09-12T08:58:58;7.88;;;4.28;;
31336;SDS011;22846;42.654;23.314;2023-09-12T09:01:24;7.35;;;4.45;;
31336;SDS011;22846;42.654;23.314;2023-09-12T09:03:53;8.00;;;4.57;;
31336;SDS011;22846;42.654;23.314;2023-09-12T09:06:19;9.43;;;4.60;;
31336;SDS011;22846;42.654;23.314;2023-09-12T09:08:48;9.07;;;4.68;;
31336;SDS011;22846;42.654;23.314;2023-09-12T09:11:14;6.80;;;4.85;;
31336;SDS011;22846;42.654;23.314;2023-09-12T09:13:39;5.82;;;4.07;;
31336;SDS011;22846;42.654;23.314;2023-09-12T09:18:56;6.80;;;4.03;;
31336;SDS011;22846;42.654;23.314;2023-09-12T09:21:25;6.57;;;4.13;;
31336;SDS011;22846;42.654;23.314;2023-09-12T09:23:57;5.70;;;4.05;;
31336;SDS011;22846;42.654;23.314;2023-09-12T09:29:13;5.38;;;3.78;;
31336;SDS011;22846;42.654;23.314;2023-09-12T09:31:43;9.77;;;5.15;;
31336;SDS011;22846;42.654;23.314;2023-09-12T09:34:14;6.75;;;4.75;;
31336;SDS011;22846;42.654;23.314;2023-09-12T09:36:41;5.45;;;4.35;;
31336;SDS011;22846;42.654;23.314;2023-09-12T09:39:08;7.30;;;4.18;;
31336;SDS011;22846;42.654;23.314;2023-09-12T09:41:34;8.88;;;4.50;;
31336;SDS011;22846;42.654;23.314;2023-09-12T09:44:00;7.05;;;4.13;;
31336;SDS011;22846;42.654;23.314;2023-09-12T09:46:25;5.35;;;3.63;;
31336;SDS011;22846;42.654;23.314;2023-09-12T09:48:51;5.82;;;4.05;;
31336;SDS011;22846;42.654;23.314;2023-09-12T09:51:17;5.95;;;4.28;;
31336;SDS011;22846;42.654;23.314;2023-09-12T09:53:43;5.53;;;4.22;;
31336;SDS011;22846;42.654;23.314;2023-09-12T09:56:10;6.38;;;3.95;;
31336;SDS011;22846;42.654;23.314;2023-09-12T09:58:41;7.20;;;3.95;;
31336;SDS011;22846;42.654;23.314;2023-09-12T10:01:12;7.03;;;3.55;;
31336;SDS011;22846;42.654;23.314;2023-09-12T10:03:42;6.75;;;4.15;;
31336;SDS011;22846;42.654;23.314;2023-09-12T10:06:09;5.68;;;3.55;;
31336;SDS011;22846;42.654;23.314;2023-09-12T10:08:36;5.35;;;3.83;;
31336;SDS011;22846;42.654;23.314;2023-09-12T10:11:05;5.15;;;3.42;;
31336;SDS011;22846;42.654;23.314;2023-09-12T10:13:32;5.68;;;3.58;;
31336;SDS011;22846;42.654;23.314;2023-09-12T10:16:00;5.43;;;3.35;;
31336;SDS011;22846;42.654;23.314;2023-09-12T10:18:29;6.88;;;3.60;;
31336;SDS011;22846;42.654;23.314;2023-09-12T10:21:08;4.82;;;3.20;;
31336;SDS011;22846;42.654;23.314;2023-09-12T10:23:38;5.72;;;3.65;;
31336;SDS011;22846;42.654;23.314;2023-09-12T10:26:10;6.55;;;3.97;;
31336;SDS011;22846;42.654;23.314;2023-09-12T10:28:39;7.40;;;3.28;;
31336;SDS011;22846;42.654;23.314;2023-09-12T10:31:05;6.03;;;3.70;;
31336;SDS011;22846;42.654;23.314;2023-09-12T10:33:33;4.80;;;3.22;;
31336;SDS011;22846;42.654;23.314;2023-09-12T10:35:59;6.40;;;3.78;;
31336;SDS011;22846;42.654;23.314;2023-09-12T10:38:26;5.70;;;3.25;;
31336;SDS011;22846;42.654;23.314;2023-09-12T10:40:53;5.22;;;3.45;;
31336;SDS011;22846;42.654;23.314;2023-09-12T10:43:20;5.88;;;3.70;;
31336;SDS011;22846;42.654;23.314;2023-09-12T10:45:48;4.78;;;3.28;;
31336;SDS011;22846;42.654;23.314;2023-09-12T10:48:14;4.63;;;3.42;;
31336;SDS011;22846;42.654;23.314;2023-09-12T10:50:40;4.53;;;3.60;;
31336;SDS011;22846;42.654;23.314;2023-09-12T10:53:13;5.13;;;3.60;;
31336;SDS011;22846;42.654;23.314;2023-09-12T10:55:39;5.63;;;3.50;;
31336;SDS011;22846;42.654;23.314;2023-09-12T10:58:08;5.47;;;3.40;;
31336;SDS011;22846;42.654;23.314;2023-09-12T11:00:35;5.13;;;3.45;;
31336;SDS011;22846;42.654;23.314;2023-09-12T11:03:45;5.47;;;3.63;;
31336;SDS011;22846;42.654;23.314;2023-09-12T11:05:52;6.07;;;3.60;;
31336;SDS011;22846;42.654;23.314;2023-09-12T11:08:18;5.25;;;3.67;;
31336;SDS011;22846;42.654;23.314;2023-09-12T11:10:44;7.03;;;3.15;;
31336;SDS011;22846;42.654;23.314;2023-09-12T11:13:16;5.82;;;3.67;;
31336;SDS011;22846;42.654;23.314;2023-09-12T11:16:09;5.28;;;3.40;;
31336;SDS011;22846;42.654;23.314;2023-09-12T11:21:43;4.47;;;3.35;;
31336;SDS011;22846;42.654;23.314;2023-09-12T11:24:13;4.95;;;3.30;;
31336;SDS011;22846;42.654;23.314;2023-09-12T11:29:30;5.30;;;3.10;;
31336;SDS011;22846;42.654;23.314;2023-09-12T11:32:01;4.47;;;3.05;;
31336;SDS011;22846;42.654;23.314;2023-09-12T11:35:04;3.47;;;2.90;;
31336;SDS011;22846;42.654;23.314;2023-09-12T11:37:27;4.18;;;2.90;;
31336;SDS011;22846;42.654;23.314;2023-09-12T11:39:54;3.35;;;2.85;;
31336;SDS011;22846;42.654;23.314;2023-09-12T11:42:22;4.90;;;2.75;;
31336;SDS011;22846;42.654;23.314;2023-09-12T11:44:51;5.82;;;3.13;;
31336;SDS011;22846;42.654;23.314;2023-09-12T11:47:17;4.15;;;2.95;;
31336;SDS011;22846;42.654;23.314;2023-09-12T11:49:42;4.30;;;2.83;;
31336;SDS011;22846;42.654;23.314;2023-09-12T11:52:09;4.22;;;2.90;;
31336;SDS011;22846;42.654;23.314;2023-09-12T11:54:35;7.72;;;3.00;;
31336;SDS011;22846;42.654;23.314;2023-09-12T11:57:01;4.82;;;3.20;;
31336;SDS011;22846;42.654;23.314;2023-09-12T11:59:27;4.25;;;3.10;;
31336;SDS011;22846;42.654;23.314;2023-09-12T12:01:54;5.88;;;2.90;;
31336;SDS011;22846;42.654;23.314;2023-09-12T12:04:20;3.97;;;2.85;;
31336;SDS011;22846;42.654;23.314;2023-09-12T12:06:47;6.00;;;3.03;;
31336;SDS011;22846;42.654;23.314;2023-09-12T12:09:16;7.82;;;2.88;;
31336;SDS011;22846;42.654;23.314;2023-09-12T12:11:46;5.60;;;3.00;;
31336;SDS011;22846;42.654;23.314;2023-09-12T12:14:13;5.57;;;2.80;;
31336;SDS011;22846;42.654;23.314;2023-09-12T12:16:40;4.22;;;2.75;;
31336;SDS011;22846;42.654;23.314;2023-09-12T12:19:09;3.97;;;2.70;;
31336;SDS011;22846;42.654;23.314;2023-09-12T12:21:37;5.13;;;3.15;;
31336;SDS011;22846;42.654;23.314;2023-09-12T12:24:03;6.15;;;2.97;;
31336;SDS011;22846;42.654;23.314;2023-09-12T12:26:30;3.90;;;2.83;;
31336;SDS011;22846;42.654;23.314;2023-09-12T12:28:55;5.18;;;3.05;;
31336;SDS011;22846;42.654;23.314;2023-09-12T12:31:21;5.03;;;2.97;;
31336;SDS011;22846;42.654;23.314;2023-09-12T12:33:50;4.18;;;2.90;;
31336;SDS011;22846;42.654;23.314;2023-09-12T12:36:17;5.47;;;3.08;;
31336;SDS011;22846;42.654;23.314;2023-09-12T12:38:43;3.92;;;2.90;;
31336;SDS011;22846;42.654;23.314;2023-09-12T12:41:12;5.15;;;2.83;;
31336;SDS011;22846;42.654;23.314;2023-09-12T12:43:42;5.13;;;2.85;;
31336;SDS011;22846;42.654;23.314;2023-09-12T12:46:11;3.08;;;2.38;;
31336;SDS011;22846;42.654;23.314;2023-09-12T12:48:38;6.32;;;2.65;;
31336;SDS011;22846;42.654;23.314;2023-09-12T12:53:43;5.70;;;2.95;;
31336;SDS011;22846;42.654;23.314;2023-09-12T12:56:11;3.55;;;2.72;;
31336;SDS011;22846;42.654;23.314;2023-09-12T12:58:50;3.28;;;2.55;;
31336;SDS011;22846;42.654;23.314;2023-09-12T13:01:17;3.55;;;2.80;;
31336;SDS011;22846;42.654;23.314;2023-09-12T13:03:42;6.90;;;2.78;;
31336;SDS011;22846;42.654;23.314;2023-09-12T13:06:08;4.60;;;2.53;;
31336;SDS011;22846;42.654;23.314;2023-09-12T13:08:39;2.72;;;2.30;;
31336;SDS011;22846;42.654;23.314;2023-09-12T13:11:06;4.28;;;2.65;;
31336;SDS011;22846;42.654;23.314;2023-09-12T13:13:31;3.45;;;2.38;;
31336;SDS011;22846;42.654;23.314;2023-09-12T13:15:57;3.90;;;2.40;;
31336;SDS011;22846;42.654;23.314;2023-09-12T13:18:22;3.25;;;2.47;;
31336;SDS011;22846;42.654;23.314;2023-09-12T13:20:48;5.13;;;2.80;;
31336;SDS011;22846;42.654;23.314;2023-09-12T13:23:13;3.33;;;2.53;;
31336;SDS011;22846;42.654;23.314;2023-09-12T13:25:38;3.60;;;2.65;;
31336;SDS011;22846;42.654;23.314;2023-09-12T13:28:04;4.45;;;2.80;;
31336;SDS011;22846;42.654;23.314;2023-09-12T13:30:29;4.75;;;2.70;;
31336;SDS011;22846;42.654;23.314;2023-09-12T13:32:55;4.53;;;2.58;;
31336;SDS011;22846;42.654;23.314;2023-09-12T13:35:20;3.72;;;2.55;;
31336;SDS011;22846;42.654;23.314;2023-09-12T13:37:45;5.82;;;2.53;;
31336;SDS011;22846;42.654;23.314;2023-09-12T13:40:11;4.93;;;2.47;;
31336;SDS011;22846;42.654;23.314;2023-09-12T13:42:36;3.20;;;2.20;;
31336;SDS011;22846;42.654;23.314;2023-09-12T13:45:02;3.00;;;2.47;;
31336;SDS011;22846;42.654;23.314;2023-09-12T13:47:27;3.92;;;2.50;;
31336;SDS011;22846;42.654;23.314;2023-09-12T13:49:53;4.35;;;2.50;;
31336;SDS011;22846;42.654;23.314;2023-09-12T13:52:21;3.50;;;2.30;;
31336;SDS011;22846;42.654;23.314;2023-09-12T13:54:47;3.80;;;2.70;;
31336;SDS011;22846;42.654;23.314;2023-09-12T13:57:12;3.40;;;2.20;;
31336;SDS011;22846;42.654;23.314;2023-09-12T13:59:38;2.83;;;2.20;;
31336;SDS011;22846;42.654;23.314;2023-09-12T14:02:03;5.25;;;2.20;;
31336;SDS011;22846;42.654;23.314;2023-09-12T14:04:29;3.67;;;2.58;;
31336;SDS011;22846;42.654;23.314;2023-09-12T14:06:54;3.58;;;2.35;;
31336;SDS011;22846;42.654;23.314;2023-09-12T14:09:20;4.78;;;2.60;;
31336;SDS011;22846;42.654;23.314;2023-09-12T14:11:45;3.78;;;2.35;;
31336;SDS011;22846;42.654;23.314;2023-09-12T14:14:12;3.45;;;2.30;;
31336;SDS011;22846;42.654;23.314;2023-09-12T14:16:38;5.57;;;2.60;;
31336;SDS011;22846;42.654;23.314;2023-09-12T14:19:03;4.05;;;2.50;;
31336;SDS011;22846;42.654;23.314;2023-09-12T14:21:29;5.53;;;2.30;;
31336;SDS011;22846;42.654;23.314;2023-09-12T14:23:54;3.50;;;2.58;;
31336;SDS011;22846;42.654;23.314;2023-09-12T14:26:19;4.25;;;2.47;;
31336;SDS011;22846;42.654;23.314;2023-09-12T14:28:45;3.08;;;2.30;;
31336;SDS011;22846;42.654;23.314;2023-09-12T14:31:11;3.53;;;2.40;;
31336;SDS011;22846;42.654;23.314;2023-09-12T14:33:39;4.63;;;2.60;;
31336;SDS011;22846;42.654;23.314;2023-09-12T14:36:05;4.70;;;2.38;;
31336;SDS011;22846;42.654;23.314;2023-09-12T14:38:33;4.47;;;2.17;;
31336;SDS011;22846;42.654;23.314;2023-09-12T14:40:58;4.47;;;2.70;;
31336;SDS011;22846;42.654;23.314;2023-09-12T14:43:23;3.10;;;2.65;;